sensor_id;sensor_type;location;lat;lon;timestamp;pressure;altitude;pressure_sealevel;temperature;humidity
38616;BME280;24370;51.986;4.666;2022-07-30T00:02:08;101953.19;;;28.03;39.65
38616;BME280;24370;51.986;4.666;2022-07-30T00:04:33;101960.28;;;27.63;40.08
38616;BME280;24370;51.986;4.666;2022-07-30T00:06:59;101948.19;;;27.97;39.43
38616;BME280;24370;51.986;4.666;2022-07-30T00:09:25;101955.53;;;27.53;40.29
38616;BME280;24370;51.986;4.666;2022-07-30T00:11:50;101959.44;;;27.62;39.83
38616;BME280;24370;51.986;4.666;2022-07-30T00:14:15;101952.25;;;27.34;40.75
38616;BME280;24370;51.986;4.666;2022-07-30T00:16:41;101953.97;;;27.35;40.82
38616;BME280;24370;51.986;4.666;2022-07-30T00:19:06;101953.28;;;27.74;39.85
38616;BME280;24370;51.986;4.666;2022-07-30T00:21:32;101941.13;;;27.25;40.92
38616;BME280;24370;51.986;4.666;2022-07-30T00:23:57;101944.06;;;27.37;40.84
38616;BME280;24370;51.986;4.666;2022-07-30T00:26:22;101931.63;;;27.63;40.40
38616;BME280;24370;51.986;4.666;2022-07-30T00:28:48;101931.94;;;27.30;40.68
38616;BME280;24370;51.986;4.666;2022-07-30T00:31:13;101931.91;;;27.58;39.83
38616;BME280;24370;51.986;4.666;2022-07-30T00:33:39;101932.78;;;27.59;40.34
38616;BME280;24370;51.986;4.666;2022-07-30T00:36:04;101931.75;;;27.33;40.45
38616;BME280;24370;51.986;4.666;2022-07-30T00:38:29;101921.97;;;27.32;40.44
38616;BME280;24370;51.986;4.666;2022-07-30T00:40:55;101921.00;;;27.62;39.98
38616;BME280;24370;51.986;4.666;2022-07-30T00:43:20;101930.06;;;27.73;39.63
38616;BME280;24370;51.986;4.666;2022-07-30T00:45:46;101928.06;;;27.63;39.88
38616;BME280;24370;51.986;4.666;2022-07-30T00:48:12;101928.59;;;27.12;40.42
38616;BME280;24370;51.986;4.666;2022-07-30T00:50:39;101925.03;;;27.54;40.00
38616;BME280;24370;51.986;4.666;2022-07-30T00:53:05;101932.34;;;26.95;40.94
38616;BME280;24370;51.986;4.666;2022-07-30T00:55:30;101931.81;;;26.59;42.23
38616;BME280;24370;51.986;4.666;2022-07-30T00:57:56;101930.81;;;27.05;41.28
38616;BME280;24370;51.986;4.666;2022-07-30T01:00:22;101928.72;;;27.24;40.81
38616;BME280;24370;51.986;4.666;2022-07-30T01:02:48;101931.59;;;26.78;41.66
38616;BME280;24370;51.986;4.666;2022-07-30T01:05:14;101923.66;;;26.61;41.90
38616;BME280;24370;51.986;4.666;2022-07-30T01:07:40;101930.53;;;26.81;41.95
38616;BME280;24370;51.986;4.666;2022-07-30T01:10:08;101924.50;;;26.91;41.37
38616;BME280;24370;51.986;4.666;2022-07-30T01:12:34;101922.22;;;26.69;41.59
38616;BME280;24370;51.986;4.666;2022-07-30T01:15:01;101926.41;;;26.75;41.65
38616;BME280;24370;51.986;4.666;2022-07-30T01:17:27;101923.25;;;27.26;40.48
38616;BME280;24370;51.986;4.666;2022-07-30T01:19:59;101923.69;;;27.47;40.16
38616;BME280;24370;51.986;4.666;2022-07-30T01:22:28;101930.53;;;27.09;40.66
38616;BME280;24370;51.986;4.666;2022-07-30T01:28:13;101923.16;;;26.99;41.21
38616;BME280;24370;51.986;4.666;2022-07-30T01:30:41;101923.53;;;26.78;40.98
38616;BME280;24370;51.986;4.666;2022-07-30T01:33:10;101922.66;;;27.06;40.96
38616;BME280;24370;51.986;4.666;2022-07-30T01:35:38;101911.25;;;27.17;40.26
38616;BME280;24370;51.986;4.666;2022-07-30T01:38:04;101909.16;;;26.94;40.86
38616;BME280;24370;51.986;4.666;2022-07-30T01:40:31;101916.84;;;27.00;40.42
38616;BME280;24370;51.986;4.666;2022-07-30T01:42:59;101910.69;;;27.12;40.07
38616;BME280;24370;51.986;4.666;2022-07-30T01:45:28;101914.09;;;27.57;39.40
38616;BME280;24370;51.986;4.666;2022-07-30T01:47:58;101918.75;;;27.12;40.32
38616;BME280;24370;51.986;4.666;2022-07-30T01:50:25;101913.56;;;26.80;41.02
38616;BME280;24370;51.986;4.666;2022-07-30T01:52:53;101919.97;;;26.78;41.59
38616;BME280;24370;51.986;4.666;2022-07-30T01:55:32;101924.13;;;26.83;41.23
38616;BME280;24370;51.986;4.666;2022-07-30T01:57:59;101926.03;;;26.81;41.22
38616;BME280;24370;51.986;4.666;2022-07-30T02:00:27;101924.00;;;26.70;41.37
38616;BME280;24370;51.986;4.666;2022-07-30T02:02:55;101923.53;;;26.92;40.63
38616;BME280;24370;51.986;4.666;2022-07-30T02:05:20;101929.41;;;26.54;41.76
38616;BME280;24370;51.986;4.666;2022-07-30T02:08:00;101922.19;;;26.85;41.20
38616;BME280;24370;51.986;4.666;2022-07-30T02:10:32;101918.16;;;26.78;40.98
38616;BME280;24370;51.986;4.666;2022-07-30T02:12:59;101922.38;;;26.82;41.07
38616;BME280;24370;51.986;4.666;2022-07-30T02:21:03;101934.38;;;26.61;41.42
38616;BME280;24370;51.986;4.666;2022-07-30T02:23:30;101933.25;;;26.65;41.39
38616;BME280;24370;51.986;4.666;2022-07-30T02:25:58;101928.91;;;26.48;41.39
38616;BME280;24370;51.986;4.666;2022-07-30T02:28:25;101932.81;;;26.72;41.05
38616;BME280;24370;51.986;4.666;2022-07-30T02:30:54;101935.00;;;26.80;40.71
38616;BME280;24370;51.986;4.666;2022-07-30T02:33:23;101929.19;;;26.43;41.64
38616;BME280;24370;51.986;4.666;2022-07-30T02:35:51;101937.47;;;26.69;40.79
38616;BME280;24370;51.986;4.666;2022-07-30T02:38:19;101933.88;;;25.93;42.06
38616;BME280;24370;51.986;4.666;2022-07-30T02:40:45;101929.97;;;26.45;41.62
38616;BME280;24370;51.986;4.666;2022-07-30T02:43:13;101929.34;;;26.26;41.69
38616;BME280;24370;51.986;4.666;2022-07-30T02:45:41;101924.78;;;26.42;41.58
38616;BME280;24370;51.986;4.666;2022-07-30T02:48:08;101924.13;;;26.53;40.90
38616;BME280;24370;51.986;4.666;2022-07-30T02:50:35;101914.91;;;26.73;40.52
38616;BME280;24370;51.986;4.666;2022-07-30T02:53:02;101916.25;;;26.05;41.83
38616;BME280;24370;51.986;4.666;2022-07-30T02:55:30;101917.94;;;26.67;40.49
38616;BME280;24370;51.986;4.666;2022-07-30T02:57:57;101916.16;;;25.90;42.09
38616;BME280;24370;51.986;4.666;2022-07-30T03:00:24;101909.41;;;26.15;41.47
38616;BME280;24370;51.986;4.666;2022-07-30T03:02:52;101924.06;;;26.54;40.98
38616;BME280;24370;51.986;4.666;2022-07-30T03:05:18;101924.00;;;26.26;41.23
38616;BME280;24370;51.986;4.666;2022-07-30T03:07:44;101918.78;;;26.22;41.48
38616;BME280;24370;51.986;4.666;2022-07-30T03:10:11;101929.78;;;26.48;41.16
38616;BME280;24370;51.986;4.666;2022-07-30T03:12:39;101920.72;;;26.20;41.34
38616;BME280;24370;51.986;4.666;2022-07-30T03:15:06;101930.22;;;26.10;41.57
38616;BME280;24370;51.986;4.666;2022-07-30T03:17:36;101939.56;;;26.19;41.69
38616;BME280;24370;51.986;4.666;2022-07-30T03:20:03;101926.97;;;26.05;42.22
38616;BME280;24370;51.986;4.666;2022-07-30T03:22:31;101927.63;;;26.24;41.41
38616;BME280;24370;51.986;4.666;2022-07-30T03:24:59;101927.53;;;26.40;41.12
38616;BME280;24370;51.986;4.666;2022-07-30T03:27:26;101923.28;;;26.22;41.83
38616;BME280;24370;51.986;4.666;2022-07-30T03:29:54;101919.44;;;26.42;40.67
38616;BME280;24370;51.986;4.666;2022-07-30T03:32:20;101927.69;;;26.53;40.59
38616;BME280;24370;51.986;4.666;2022-07-30T03:34:47;101923.81;;;26.13;41.64
38616;BME280;24370;51.986;4.666;2022-07-30T03:37:12;101923.19;;;26.23;41.45
38616;BME280;24370;51.986;4.666;2022-07-30T03:39:39;101923.31;;;26.36;41.19
38616;BME280;24370;51.986;4.666;2022-07-30T03:42:06;101929.50;;;26.22;41.55
38616;BME280;24370;51.986;4.666;2022-07-30T03:44:32;101921.47;;;26.22;41.48
38616;BME280;24370;51.986;4.666;2022-07-30T03:46:59;101927.81;;;26.05;42.06
38616;BME280;24370;51.986;4.666;2022-07-30T03:49:25;101929.75;;;26.34;41.28
38616;BME280;24370;51.986;4.666;2022-07-30T03:51:51;101925.88;;;26.23;41.64
38616;BME280;24370;51.986;4.666;2022-07-30T03:54:17;101926.47;;;26.29;41.64
38616;BME280;24370;51.986;4.666;2022-07-30T03:56:43;101939.66;;;26.17;41.66
38616;BME280;24370;51.986;4.666;2022-07-30T03:59:09;101938.09;;;26.44;41.27
38616;BME280;24370;51.986;4.666;2022-07-30T04:01:35;101932.59;;;26.31;41.26
38616;BME280;24370;51.986;4.666;2022-07-30T04:04:07;101935.06;;;26.03;42.17
38616;BME280;24370;51.986;4.666;2022-07-30T04:06:34;101935.69;;;26.39;40.90
38616;BME280;24370;51.986;4.666;2022-07-30T04:09:10;101939.75;;;25.84;42.63
38616;BME280;24370;51.986;4.666;2022-07-30T04:11:36;101944.66;;;26.07;41.82
38616;BME280;24370;51.986;4.666;2022-07-30T04:14:02;101948.56;;;26.02;42.18
38616;BME280;24370;51.986;4.666;2022-07-30T04:16:38;101951.91;;;26.21;41.68
38616;BME280;24370;51.986;4.666;2022-07-30T04:19:11;101953.19;;;26.14;41.82
38616;BME280;24370;51.986;4.666;2022-07-30T04:21:40;101950.44;;;25.84;42.67
38616;BME280;24370;51.986;4.666;2022-07-30T04:24:07;101953.19;;;26.14;41.81
38616;BME280;24370;51.986;4.666;2022-07-30T04:26:35;101954.94;;;26.76;40.24
38616;BME280;24370;51.986;4.666;2022-07-30T04:29:02;101955.84;;;26.61;40.98
38616;BME280;24370;51.986;4.666;2022-07-30T04:31:29;101958.22;;;26.20;42.02
38616;BME280;24370;51.986;4.666;2022-07-30T04:33:59;101957.31;;;26.36;41.52
38616;BME280;24370;51.986;4.666;2022-07-30T04:36:25;101960.94;;;26.35;41.04
38616;BME280;24370;51.986;4.666;2022-07-30T04:38:50;101956.72;;;26.31;41.22
38616;BME280;24370;51.986;4.666;2022-07-30T04:41:16;101961.94;;;26.48;41.06
38616;BME280;24370;51.986;4.666;2022-07-30T04:43:41;101952.44;;;26.42;41.47
38616;BME280;24370;51.986;4.666;2022-07-30T04:46:06;101964.13;;;26.72;40.51
38616;BME280;24370;51.986;4.666;2022-07-30T04:48:32;101958.88;;;26.85;40.52
38616;BME280;24370;51.986;4.666;2022-07-30T04:50:59;101958.13;;;26.52;41.39
38616;BME280;24370;51.986;4.666;2022-07-30T04:53:27;101956.66;;;26.47;41.02
38616;BME280;24370;51.986;4.666;2022-07-30T04:55:53;101954.28;;;26.56;41.13
38616;BME280;24370;51.986;4.666;2022-07-30T04:58:21;101955.31;;;26.84;40.57
38616;BME280;24370;51.986;4.666;2022-07-30T05:00:48;101956.50;;;26.95;40.56
38616;BME280;24370;51.986;4.666;2022-07-30T05:03:16;101970.47;;;26.85;40.73
38616;BME280;24370;51.986;4.666;2022-07-30T05:05:41;101968.94;;;26.65;41.22
38616;BME280;24370;51.986;4.666;2022-07-30T05:08:07;101964.50;;;26.80;41.17
38616;BME280;24370;51.986;4.666;2022-07-30T05:10:33;101974.69;;;26.75;40.95
38616;BME280;24370;51.986;4.666;2022-07-30T05:12:58;101972.47;;;25.73;43.39
38616;BME280;24370;51.986;4.666;2022-07-30T05:15:24;101973.66;;;25.99;42.48
38616;BME280;24370;51.986;4.666;2022-07-30T05:17:50;101970.50;;;25.93;42.66
38616;BME280;24370;51.986;4.666;2022-07-30T05:20:15;101973.09;;;26.40;41.94
38616;BME280;24370;51.986;4.666;2022-07-30T05:22:41;101977.56;;;26.86;40.73
38616;BME280;24370;51.986;4.666;2022-07-30T05:25:07;101981.69;;;27.21;40.14
38616;BME280;24370;51.986;4.666;2022-07-30T05:27:32;101973.34;;;26.52;41.70
38616;BME280;24370;51.986;4.666;2022-07-30T05:29:58;101984.28;;;27.22;40.26
38616;BME280;24370;51.986;4.666;2022-07-30T05:32:23;101989.22;;;26.71;41.09
38616;BME280;24370;51.986;4.666;2022-07-30T05:34:48;101996.72;;;26.95;40.79
38616;BME280;24370;51.986;4.666;2022-07-30T05:37:14;101997.88;;;27.05;40.91
38616;BME280;24370;51.986;4.666;2022-07-30T05:39:39;101992.16;;;27.40;40.10
38616;BME280;24370;51.986;4.666;2022-07-30T05:42:05;102003.25;;;27.63;39.64
38616;BME280;24370;51.986;4.666;2022-07-30T05:44:30;101992.91;;;27.98;38.67
38616;BME280;24370;51.986;4.666;2022-07-30T05:46:55;102002.06;;;27.81;39.39
38616;BME280;24370;51.986;4.666;2022-07-30T05:49:21;101992.44;;;27.21;40.73
38616;BME280;24370;51.986;4.666;2022-07-30T05:51:46;101997.13;;;27.46;40.18
38616;BME280;24370;51.986;4.666;2022-07-30T05:54:12;102010.25;;;27.22;41.00
38616;BME280;24370;51.986;4.666;2022-07-30T05:56:37;102001.19;;;27.53;39.96
38616;BME280;24370;51.986;4.666;2022-07-30T05:59:04;102001.53;;;27.33;40.32
38616;BME280;24370;51.986;4.666;2022-07-30T06:01:30;102004.22;;;27.18;41.06
38616;BME280;24370;51.986;4.666;2022-07-30T06:03:55;101997.56;;;27.82;39.17
38616;BME280;24370;51.986;4.666;2022-07-30T06:06:20;101997.47;;;26.82;41.31
38616;BME280;24370;51.986;4.666;2022-07-30T06:08:46;102015.13;;;27.01;40.68
38616;BME280;24370;51.986;4.666;2022-07-30T06:11:12;102008.06;;;27.29;40.62
38616;BME280;24370;51.986;4.666;2022-07-30T06:13:37;102008.81;;;27.59;39.74
38616;BME280;24370;51.986;4.666;2022-07-30T06:16:03;102012.28;;;27.33;40.20
38616;BME280;24370;51.986;4.666;2022-07-30T06:18:29;102009.19;;;26.96;41.07
38616;BME280;24370;51.986;4.666;2022-07-30T06:20:54;102005.41;;;26.23;42.04
38616;BME280;24370;51.986;4.666;2022-07-30T06:23:20;102016.13;;;27.57;39.84
38616;BME280;24370;51.986;4.666;2022-07-30T06:25:46;102015.72;;;27.35;39.97
38616;BME280;24370;51.986;4.666;2022-07-30T06:28:13;102010.91;;;27.25;40.90
38616;BME280;24370;51.986;4.666;2022-07-30T06:30:38;102003.00;;;27.95;39.23
38616;BME280;24370;51.986;4.666;2022-07-30T06:33:05;102004.63;;;26.51;41.67
38616;BME280;24370;51.986;4.666;2022-07-30T06:35:30;101999.97;;;27.72;39.26
38616;BME280;24370;51.986;4.666;2022-07-30T06:37:56;102004.19;;;26.75;40.81
38616;BME280;24370;51.986;4.666;2022-07-30T06:40:22;102007.72;;;26.59;40.76
38616;BME280;24370;51.986;4.666;2022-07-30T06:42:47;102005.34;;;27.86;39.23
38616;BME280;24370;51.986;4.666;2022-07-30T06:45:13;101989.31;;;28.92;36.72
38616;BME280;24370;51.986;4.666;2022-07-30T06:47:38;101994.44;;;30.21;33.67
38616;BME280;24370;51.986;4.666;2022-07-30T06:50:04;101998.63;;;31.19;31.58
38616;BME280;24370;51.986;4.666;2022-07-30T06:52:29;101998.09;;;32.47;30.46
38616;BME280;24370;51.986;4.666;2022-07-30T06:54:55;102007.78;;;31.85;30.01
38616;BME280;24370;51.986;4.666;2022-07-30T06:57:20;102001.56;;;32.17;29.64
38616;BME280;24370;51.986;4.666;2022-07-30T06:59:45;101995.41;;;34.41;27.62
38616;BME280;24370;51.986;4.666;2022-07-30T07:02:11;102003.63;;;34.69;26.21
38616;BME280;24370;51.986;4.666;2022-07-30T07:04:36;102010.50;;;34.04;27.52
38616;BME280;24370;51.986;4.666;2022-07-30T07:07:02;102009.72;;;35.65;24.99
38616;BME280;24370;51.986;4.666;2022-07-30T07:09:28;102006.69;;;35.69;25.25
38616;BME280;24370;51.986;4.666;2022-07-30T07:11:53;102011.03;;;35.89;25.47
38616;BME280;24370;51.986;4.666;2022-07-30T07:14:18;102008.19;;;35.81;24.20
38616;BME280;24370;51.986;4.666;2022-07-30T07:16:44;102008.59;;;36.84;24.23
38616;BME280;24370;51.986;4.666;2022-07-30T07:19:09;102008.47;;;36.06;23.91
38616;BME280;24370;51.986;4.666;2022-07-30T07:21:34;102008.69;;;36.30;24.54
38616;BME280;24370;51.986;4.666;2022-07-30T07:24:00;102010.56;;;37.78;22.21
38616;BME280;24370;51.986;4.666;2022-07-30T07:26:27;102012.00;;;38.40;22.14
38616;BME280;24370;51.986;4.666;2022-07-30T07:28:52;102015.16;;;36.11;23.97
38616;BME280;24370;51.986;4.666;2022-07-30T07:31:18;102019.38;;;37.55;21.99
38616;BME280;24370;51.986;4.666;2022-07-30T07:33:43;102019.69;;;38.36;21.91
38616;BME280;24370;51.986;4.666;2022-07-30T07:36:11;102019.34;;;36.68;22.75
38616;BME280;24370;51.986;4.666;2022-07-30T07:38:36;102021.34;;;37.45;23.17
38616;BME280;24370;51.986;4.666;2022-07-30T07:41:01;102020.66;;;37.34;22.45
38616;BME280;24370;51.986;4.666;2022-07-30T07:43:27;102026.28;;;37.92;20.96
38616;BME280;24370;51.986;4.666;2022-07-30T07:45:54;102031.28;;;38.30;21.89
38616;BME280;24370;51.986;4.666;2022-07-30T07:48:19;102027.81;;;38.94;21.13
38616;BME280;24370;51.986;4.666;2022-07-30T07:50:44;102038.31;;;39.69;19.45
38616;BME280;24370;51.986;4.666;2022-07-30T07:53:10;102031.03;;;36.78;21.74
38616;BME280;24370;51.986;4.666;2022-07-30T07:55:36;102032.66;;;38.26;20.95
38616;BME280;24370;51.986;4.666;2022-07-30T07:58:02;102029.78;;;39.25;20.51
38616;BME280;24370;51.986;4.666;2022-07-30T08:00:28;102022.47;;;36.99;22.10
38616;BME280;24370;51.986;4.666;2022-07-30T08:02:53;102018.44;;;38.22;20.55
38616;BME280;24370;51.986;4.666;2022-07-30T08:05:18;102017.78;;;38.78;19.91
38616;BME280;24370;51.986;4.666;2022-07-30T08:07:44;102014.72;;;38.56;21.75
38616;BME280;24370;51.986;4.666;2022-07-30T08:10:10;102013.84;;;38.89;20.63
38616;BME280;24370;51.986;4.666;2022-07-30T08:12:38;102018.00;;;39.87;20.22
38616;BME280;24370;51.986;4.666;2022-07-30T08:15:04;102012.78;;;39.46;19.22
38616;BME280;24370;51.986;4.666;2022-07-30T08:17:29;102002.97;;;39.28;19.73
38616;BME280;24370;51.986;4.666;2022-07-30T08:19:58;102009.97;;;39.62;20.06
38616;BME280;24370;51.986;4.666;2022-07-30T08:22:25;102007.78;;;40.50;18.89
38616;BME280;24370;51.986;4.666;2022-07-30T08:24:50;102022.00;;;39.76;19.33
38616;BME280;24370;51.986;4.666;2022-07-30T08:27:16;102007.63;;;40.82;20.04
38616;BME280;24370;51.986;4.666;2022-07-30T08:29:41;102023.13;;;40.36;18.18
38616;BME280;24370;51.986;4.666;2022-07-30T08:32:06;102019.53;;;38.71;19.70
38616;BME280;24370;51.986;4.666;2022-07-30T08:34:32;102009.25;;;41.21;18.09
38616;BME280;24370;51.986;4.666;2022-07-30T08:36:57;102004.78;;;40.90;18.24
38616;BME280;24370;51.986;4.666;2022-07-30T08:39:23;102011.88;;;37.23;20.71
38616;BME280;24370;51.986;4.666;2022-07-30T08:41:48;102012.63;;;37.07;22.52
38616;BME280;24370;51.986;4.666;2022-07-30T08:44:16;102016.06;;;35.84;21.54
38616;BME280;24370;51.986;4.666;2022-07-30T08:46:42;102012.50;;;36.02;22.86
38616;BME280;24370;51.986;4.666;2022-07-30T08:49:10;102014.75;;;35.88;22.09
38616;BME280;24370;51.986;4.666;2022-07-30T08:51:36;102010.38;;;37.28;20.60
38616;BME280;24370;51.986;4.666;2022-07-30T08:54:02;102014.19;;;38.19;20.25
38616;BME280;24370;51.986;4.666;2022-07-30T08:56:28;102018.75;;;39.49;18.43
38616;BME280;24370;51.986;4.666;2022-07-30T08:58:54;102024.75;;;40.08;18.29
38616;BME280;24370;51.986;4.666;2022-07-30T09:01:20;102030.22;;;34.75;22.26
38616;BME280;24370;51.986;4.666;2022-07-30T09:03:46;102027.03;;;38.44;19.25
38616;BME280;24370;51.986;4.666;2022-07-30T09:06:12;102033.09;;;39.03;19.50
38616;BME280;24370;51.986;4.666;2022-07-30T09:08:37;102020.81;;;39.39;19.35
38616;BME280;24370;51.986;4.666;2022-07-30T09:11:03;102019.50;;;40.97;17.56
38616;BME280;24370;51.986;4.666;2022-07-30T09:13:32;102026.53;;;34.37;22.82
38616;BME280;24370;51.986;4.666;2022-07-30T09:16:02;102031.38;;;34.43;23.71
38616;BME280;24370;51.986;4.666;2022-07-30T09:18:31;102021.19;;;38.80;21.32
38616;BME280;24370;51.986;4.666;2022-07-30T09:20:59;102024.81;;;39.36;19.53
38616;BME280;24370;51.986;4.666;2022-07-30T09:23:24;102025.38;;;39.07;19.19
38616;BME280;24370;51.986;4.666;2022-07-30T09:25:50;102031.91;;;40.55;19.07
38616;BME280;24370;51.986;4.666;2022-07-30T09:28:16;102037.22;;;39.79;18.53
38616;BME280;24370;51.986;4.666;2022-07-30T09:30:53;102022.81;;;39.14;18.03
38616;BME280;24370;51.986;4.666;2022-07-30T09:33:36;102027.25;;;39.23;18.10
38616;BME280;24370;51.986;4.666;2022-07-30T09:36:07;102028.38;;;38.81;18.95
38616;BME280;24370;51.986;4.666;2022-07-30T09:38:49;102022.41;;;40.43;18.39
38616;BME280;24370;51.986;4.666;2022-07-30T09:41:17;102018.66;;;41.63;17.05
38616;BME280;24370;51.986;4.666;2022-07-30T09:43:47;102014.84;;;38.96;19.70
38616;BME280;24370;51.986;4.666;2022-07-30T09:46:14;102024.22;;;39.81;18.34
38616;BME280;24370;51.986;4.666;2022-07-30T09:48:39;102021.22;;;38.47;18.84
38616;BME280;24370;51.986;4.666;2022-07-30T09:51:05;102018.38;;;39.52;18.85
38616;BME280;24370;51.986;4.666;2022-07-30T09:53:30;102014.94;;;41.04;17.48
38616;BME280;24370;51.986;4.666;2022-07-30T09:55:57;102014.47;;;41.01;16.69
38616;BME280;24370;51.986;4.666;2022-07-30T09:58:36;102010.13;;;39.92;18.68
38616;BME280;24370;51.986;4.666;2022-07-30T10:01:02;102012.13;;;36.77;20.52
38616;BME280;24370;51.986;4.666;2022-07-30T10:03:27;102005.16;;;38.02;20.14
38616;BME280;24370;51.986;4.666;2022-07-30T10:05:55;102015.22;;;40.42;17.57
38616;BME280;24370;51.986;4.666;2022-07-30T10:08:49;102013.72;;;38.41;19.28
38616;BME280;24370;51.986;4.666;2022-07-30T10:11:18;102018.88;;;39.64;19.54
38616;BME280;24370;51.986;4.666;2022-07-30T10:13:45;102016.81;;;39.58;18.60
38616;BME280;24370;51.986;4.666;2022-07-30T10:16:12;102007.56;;;39.59;18.69
38616;BME280;24370;51.986;4.666;2022-07-30T10:18:40;102012.19;;;39.90;18.44
38616;BME280;24370;51.986;4.666;2022-07-30T10:21:07;102017.25;;;40.25;17.83
38616;BME280;24370;51.986;4.666;2022-07-30T10:23:33;102023.28;;;38.45;18.69
38616;BME280;24370;51.986;4.666;2022-07-30T10:25:59;102021.03;;;37.48;20.82
38616;BME280;24370;51.986;4.666;2022-07-30T10:28:28;102021.16;;;37.97;20.64
38616;BME280;24370;51.986;4.666;2022-07-30T10:30:55;102019.06;;;39.15;18.98
38616;BME280;24370;51.986;4.666;2022-07-30T10:33:23;102023.38;;;36.02;20.78
38616;BME280;24370;51.986;4.666;2022-07-30T10:35:49;102025.13;;;35.47;22.51
38616;BME280;24370;51.986;4.666;2022-07-30T10:38:16;102014.69;;;38.07;21.01
38616;BME280;24370;51.986;4.666;2022-07-30T10:41:04;102013.69;;;37.99;19.67
38616;BME280;24370;51.986;4.666;2022-07-30T10:47:02;102013.38;;;38.35;19.92
38616;BME280;24370;51.986;4.666;2022-07-30T10:49:28;102012.72;;;38.25;19.70
38616;BME280;24370;51.986;4.666;2022-07-30T10:51:54;102004.41;;;37.67;20.44
38616;BME280;24370;51.986;4.666;2022-07-30T10:57:11;102011.56;;;36.47;21.81
38616;BME280;24370;51.986;4.666;2022-07-30T11:02:18;101998.50;;;36.32;21.19
38616;BME280;24370;51.986;4.666;2022-07-30T11:04:44;102001.22;;;36.77;21.06
38616;BME280;24370;51.986;4.666;2022-07-30T11:09:58;102000.06;;;37.06;21.37
38616;BME280;24370;51.986;4.666;2022-07-30T11:15:12;101992.03;;;37.04;21.66
38616;BME280;24370;51.986;4.666;2022-07-30T11:20:23;102006.47;;;35.80;22.39
38616;BME280;24370;51.986;4.666;2022-07-30T11:22:48;102008.03;;;37.33;21.25
38616;BME280;24370;51.986;4.666;2022-07-30T11:27:46;102003.16;;;33.75;24.74
38616;BME280;24370;51.986;4.666;2022-07-30T11:32:55;102003.84;;;34.38;23.55
38616;BME280;24370;51.986;4.666;2022-07-30T11:35:28;102006.47;;;35.34;23.07
38616;BME280;24370;51.986;4.666;2022-07-30T11:40:19;102003.00;;;32.95;25.62
38616;BME280;24370;51.986;4.666;2022-07-30T11:42:47;102005.31;;;34.89;22.97
38616;BME280;24370;51.986;4.666;2022-07-30T11:47:52;101998.97;;;36.72;22.62
38616;BME280;24370;51.986;4.666;2022-07-30T11:50:29;101990.97;;;36.44;22.56
38616;BME280;24370;51.986;4.666;2022-07-30T11:52:58;101998.50;;;36.32;22.61
38616;BME280;24370;51.986;4.666;2022-07-30T11:55:33;101996.00;;;37.10;21.36
38616;BME280;24370;51.986;4.666;2022-07-30T11:58:01;102002.97;;;35.70;21.98
38616;BME280;24370;51.986;4.666;2022-07-30T12:00:39;102003.47;;;35.83;21.45
38616;BME280;24370;51.986;4.666;2022-07-30T12:03:10;101995.25;;;34.23;23.80
38616;BME280;24370;51.986;4.666;2022-07-30T12:05:36;101996.94;;;37.86;21.57
38616;BME280;24370;51.986;4.666;2022-07-30T12:08:02;101999.72;;;36.56;21.61
38616;BME280;24370;51.986;4.666;2022-07-30T12:10:28;102006.13;;;36.47;20.99
38616;BME280;24370;51.986;4.666;2022-07-30T12:13:08;101999.00;;;37.84;20.13
38616;BME280;24370;51.986;4.666;2022-07-30T12:15:37;102004.72;;;36.43;20.68
38616;BME280;24370;51.986;4.666;2022-07-30T12:18:03;102006.50;;;37.98;20.25
38616;BME280;24370;51.986;4.666;2022-07-30T12:20:29;102002.97;;;38.31;20.10
38616;BME280;24370;51.986;4.666;2022-07-30T12:22:55;101998.75;;;37.18;21.33
38616;BME280;24370;51.986;4.666;2022-07-30T12:25:21;102006.06;;;35.19;24.49
38616;BME280;24370;51.986;4.666;2022-07-30T12:27:48;102008.50;;;35.50;22.71
38616;BME280;24370;51.986;4.666;2022-07-30T12:30:15;102007.50;;;35.97;22.50
38616;BME280;24370;51.986;4.666;2022-07-30T12:32:42;101996.53;;;37.73;20.26
38616;BME280;24370;51.986;4.666;2022-07-30T12:35:08;101999.84;;;37.33;21.42
38616;BME280;24370;51.986;4.666;2022-07-30T12:37:34;102002.72;;;34.97;23.72
38616;BME280;24370;51.986;4.666;2022-07-30T12:40:11;102000.47;;;36.66;22.16
38616;BME280;24370;51.986;4.666;2022-07-30T12:42:49;101989.72;;;36.39;21.92
38616;BME280;24370;51.986;4.666;2022-07-30T12:45:44;101997.88;;;35.29;23.95
38616;BME280;24370;51.986;4.666;2022-07-30T12:48:10;101993.06;;;36.32;22.92
38616;BME280;24370;51.986;4.666;2022-07-30T12:50:35;101997.78;;;34.63;24.54
38616;BME280;24370;51.986;4.666;2022-07-30T12:53:01;102004.22;;;34.43;24.41
38616;BME280;24370;51.986;4.666;2022-07-30T12:55:31;101992.13;;;36.68;22.25
38616;BME280;24370;51.986;4.666;2022-07-30T12:58:00;101987.50;;;37.21;21.23
38616;BME280;24370;51.986;4.666;2022-07-30T13:02:56;101997.75;;;36.93;21.10
38616;BME280;24370;51.986;4.666;2022-07-30T13:06:01;101997.81;;;37.01;21.74
38616;BME280;24370;51.986;4.666;2022-07-30T13:11:11;101992.59;;;36.19;22.78
38616;BME280;24370;51.986;4.666;2022-07-30T13:13:36;101992.59;;;35.27;23.55
38616;BME280;24370;51.986;4.666;2022-07-30T13:16:04;101980.19;;;36.87;22.59
38616;BME280;24370;51.986;4.666;2022-07-30T13:18:31;101976.59;;;37.13;22.03
38616;BME280;24370;51.986;4.666;2022-07-30T13:20:57;101982.88;;;37.56;21.51
38616;BME280;24370;51.986;4.666;2022-07-30T13:23:24;101983.44;;;37.25;22.23
38616;BME280;24370;51.986;4.666;2022-07-30T13:25:50;101978.63;;;37.19;21.49
38616;BME280;24370;51.986;4.666;2022-07-30T13:28:16;101983.72;;;35.81;22.69
38616;BME280;24370;51.986;4.666;2022-07-30T13:30:42;101979.22;;;36.08;23.20
38616;BME280;24370;51.986;4.666;2022-07-30T13:33:07;101981.59;;;36.03;23.10